Time;durP1;ratioP1;P1;durP2;ratioP2;P2;SDS_P1;SDS_P2;PMS_P1;PMS_P2;Temp;Humidity;BMP_temperature;BMP_pressure;BME280_temperature;BME280_humidity;BME280_pressure;Samples;Min_cycle;Max_cycle;Signal;HPM_P1;HPM_P2
2022/07/25 00:00:49;;;;;;;;;;;17.80;99.90;;;;;;4589358;19;19918;-33
2022/07/25 00:02:20;;;;;;;;;;;17.80;99.90;;;;;;4592893;19;20324;-34
2022/07/25 00:03:51;;;;;;;;;;;17.80;99.90;;;;;;4593249;19;19936;-33
2022/07/25 00:05:22;;;;;;;;;;;17.70;99.90;;;;;;4592843;19;19934;-34
2022/07/25 00:06:53;;;;;;;;;;;17.70;99.90;;;;;;4593008;19;19926;-32
2022/07/25 00:08:23;;;;;;;;;;;17.70;99.90;;;;;;4592522;19;20320;-34
2022/07/25 00:09:55;;;;;;;;;;;17.70;99.90;;;;;;4592036;19;19919;-32
2022/07/25 00:11:26;;;;;;;;;;;17.70;99.90;;;;;;4591656;19;20344;-34
2022/07/25 00:12:56;;;;;;;;;;;17.70;99.90;;;;;;4591662;19;19971;-32
2022/07/25 00:14:28;;;;;;;;;;;17.70;99.90;;;;;;4591135;19;19921;-33
2022/07/25 00:15:59;;;;;;;;;;;17.70;99.90;;;;;;4593883;19;19915;-34
2022/07/25 00:17:30;;;;;;;;;;;17.60;99.90;;;;;;4593096;19;19921;-34
2022/07/25 00:19:01;;;;;;;;;;;17.60;99.90;;;;;;4591647;19;20259;-33
2022/07/25 00:20:31;;;;;;;;;;;17.60;99.90;;;;;;4590357;19;19925;-34
2022/07/25 00:22:03;;;;;;;;;;;17.60;99.90;;;;;;4591618;19;20240;-33
2022/07/25 00:23:34;;;;;;;;;;;17.70;99.90;;;;;;4591958;19;19922;-33
2022/07/25 00:25:05;;;;;;;;;;;17.60;99.90;;;;;;4590656;19;19931;-33
2022/07/25 00:26:35;;;;;;;;;;;17.60;99.90;;;;;;4590667;19;19978;-34
2022/07/25 00:28:07;;;;;;;;;;;17.60;99.90;;;;;;4591209;19;19923;-33
2022/07/25 00:29:38;;;;;;;;;;;17.60;99.90;;;;;;4593612;19;19926;-33
2022/07/25 00:31:09;;;;;;;;;;;17.60;99.90;;;;;;4592893;19;19925;-32
2022/07/25 00:32:39;;;;;;;;;;;17.60;99.90;;;;;;4592555;19;19926;-33
2022/07/25 00:34:11;;;;;;;;;;;17.60;99.90;;;;;;4592431;19;19944;-33
2022/07/25 00:35:41;;;;;;;;;;;17.60;99.90;;;;;;4591711;19;19915;-33
2022/07/25 00:37:12;;;;;;;;;;;17.60;99.90;;;;;;4591330;19;19978;-33
2022/07/25 00:38:43;;;;;;;;;;;17.60;99.90;;;;;;4590907;19;19923;-34
2022/07/25 00:40:15;;;;;;;;;;;17.60;99.90;;;;;;4589577;19;19911;-34
2022/07/25 00:41:46;;;;;;;;;;;17.60;99.90;;;;;;4590306;19;19921;-33
2022/07/25 00:43:16;;;;;;;;;;;17.60;99.90;;;;;;4592863;19;19923;-32
2022/07/25 00:44:47;;;;;;;;;;;17.60;99.90;;;;;;4592803;19;19990;-34
2022/07/25 00:46:19;;;;;;;;;;;17.60;99.90;;;;;;4591610;19;19918;-34
2022/07/25 00:47:50;;;;;;;;;;;17.60;99.90;;;;;;4590939;19;19922;-33
2022/07/25 00:49:20;;;;;;;;;;;17.60;99.90;;;;;;4591028;19;19919;-33
2022/07/25 00:50:51;;;;;;;;;;;17.60;99.90;;;;;;4589986;19;19918;-34
2022/07/25 00:52:23;;;;;;;;;;;17.60;99.90;;;;;;4589767;19;20358;-34
2022/07/25 00:53:54;;;;;;;;;;;17.60;99.90;;;;;;4589996;19;19923;-34
2022/07/25 00:55:25;;;;;;;;;;;17.50;99.90;;;;;;4589271;19;19919;-34
2022/07/25 00:56:56;;;;;;;;;;;17.60;99.90;;;;;;4591959;19;19923;-34
2022/07/25 00:58:27;;;;;;;;;;;17.50;99.90;;;;;;4592074;19;19923;-34
2022/07/25 00:59:58;;;;;;;;;;;17.50;99.90;;;;;;4590561;19;19919;-33
2022/07/25 01:01:29;;;;;;;;;;;17.50;99.90;;;;;;4591199;19;19915;-35
2022/07/25 01:03:00;;;;;;;;;;;17.50;99.90;;;;;;4591817;19;20244;-33
2022/07/25 01:04:31;;;;;;;;;;;17.50;99.90;;;;;;4589793;19;20286;-33
2022/07/25 01:06:02;;;;;;;;;;;17.50;99.90;;;;;;4590412;19;19926;-33
2022/07/25 01:07:33;;;;;;;;;;;17.60;99.90;;;;;;4590313;19;19923;-34
2022/07/25 01:09:04;;;;;;;;;;;17.50;99.90;;;;;;4590513;19;19919;-34
2022/07/25 01:10:35;;;;;;;;;;;17.60;99.90;;;;;;4592761;19;19934;-34
2022/07/25 01:12:06;;;;;;;;;;;17.50;99.90;;;;;;4592316;19;19915;-34
2022/07/25 01:13:37;;;;;;;;;;;17.50;99.90;;;;;;4592079;19;19914;-33
2022/07/25 01:15:08;;;;;;;;;;;17.50;99.90;;;;;;4591736;19;19921;-33
2022/07/25 01:16:40;;;;;;;;;;;17.50;99.90;;;;;;4590855;19;20340;-33
2022/07/25 01:18:11;;;;;;;;;;;17.50;99.90;;;;;;4590198;19;19921;-34
2022/07/25 01:19:42;;;;;;;;;;;17.50;99.90;;;;;;4589485;19;19932;-33
2022/07/25 01:21:13;;;;;;;;;;;17.50;99.90;;;;;;4592339;19;19922;-34
2022/07/25 01:22:44;;;;;;;;;;;17.50;99.90;;;;;;4592158;19;19927;-34
2022/07/25 01:24:15;;;;;;;;;;;17.50;99.90;;;;;;4591516;19;19921;-33
2022/07/25 01:25:46;;;;;;;;;;;17.50;99.90;;;;;;4591612;19;19922;-34
2022/07/25 01:27:17;;;;;;;;;;;17.50;99.90;;;;;;4590958;19;19918;-34
2022/07/25 01:28:48;;;;;;;;;;;17.50;99.90;;;;;;4590421;19;20348;-34
2022/07/25 01:30:19;;;;;;;;;;;17.50;99.90;;;;;;4590118;19;19929;-34
2022/07/25 01:31:50;;;;;;;;;;;17.50;99.90;;;;;;4588648;19;19987;-33
2022/07/25 01:33:21;;;;;;;;;;;17.50;99.90;;;;;;4589392;19;19970;-34
2022/07/25 01:34:52;;;;;;;;;;;17.50;99.90;;;;;;4592155;19;19955;-35
2022/07/25 01:36:23;;;;;;;;;;;17.50;99.90;;;;;;4592365;19;20286;-33
2022/07/25 01:37:54;;;;;;;;;;;17.50;99.90;;;;;;4591377;19;19997;-35
2022/07/25 01:39:25;;;;;;;;;;;17.50;99.90;;;;;;4589976;19;20360;-35
2022/07/25 01:40:56;;;;;;;;;;;17.40;99.90;;;;;;4590312;19;20390;-34
2022/07/25 01:42:27;;;;;;;;;;;17.50;99.90;;;;;;4589526;19;19923;-34
2022/07/25 01:43:58;;;;;;;;;;;17.40;99.90;;;;;;4589956;19;19922;-34
2022/07/25 01:45:29;;;;;;;;;;;17.40;99.90;;;;;;4589421;19;19919;-34
2022/07/25 01:47:00;;;;;;;;;;;17.40;99.90;;;;;;4588289;19;19926;-33
2022/07/25 01:48:31;;;;;;;;;;;17.40;99.90;;;;;;4589119;19;20364;-33
2022/07/25 01:50:02;;;;;;;;;;;17.40;99.90;;;;;;4591504;19;19915;-34
2022/07/25 01:51:33;;;;;;;;;;;17.40;99.90;;;;;;4591274;19;19915;-33
2022/07/25 01:53:04;;;;;;;;;;;17.40;99.90;;;;;;4591416;19;19982;-33
2022/07/25 01:54:35;;;;;;;;;;;17.40;99.90;;;;;;4590196;19;19922;-32
2022/07/25 01:56:07;;;;;;;;;;;17.40;99.90;;;;;;4589373;19;19911;-34
2022/07/25 01:57:38;;;;;;;;;;;17.40;99.90;;;;;;4590539;19;20325;-34
2022/07/25 01:59:09;;;;;;;;;;;17.40;99.90;;;;;;4595107;19;20263;-33
2022/07/25 02:00:40;;;;;;;;;;;17.40;99.90;;;;;;4595253;19;19942;-34
2022/07/25 02:02:11;;;;;;;;;;;17.40;99.90;;;;;;4595160;19;20245;-34
2022/07/25 02:03:42;;;;;;;;;;;17.40;99.90;;;;;;4594998;19;19950;-35
2022/07/25 02:05:13;;;;;;;;;;;17.40;99.90;;;;;;4594813;19;19970;-34
2022/07/25 02:06:44;;;;;;;;;;;17.40;99.90;;;;;;4593942;19;19917;-33
2022/07/25 02:08:15;;;;;;;;;;;17.40;99.90;;;;;;4593989;19;19953;-33
2022/07/25 02:09:48;;;;;;;;;;;17.50;99.90;;;;;;4594432;19;19919;-32
2022/07/25 02:11:19;;;;;;;;;;;17.50;99.90;;;;;;4595029;19;19930;-33
2022/07/25 02:12:50;;;;;;;;;;;17.40;99.90;;;;;;4594628;19;19919;-35
2022/07/25 02:14:21;;;;;;;;;;;17.40;99.90;;;;;;4595332;19;19907;-35
2022/07/25 02:15:52;;;;;;;;;;;17.40;99.90;;;;;;4594718;19;19949;-33
2022/07/25 02:17:23;;;;;;;;;;;17.40;99.90;;;;;;4594849;19;19915;-32
2022/07/25 02:18:54;;;;;;;;;;;17.40;99.90;;;;;;4594641;19;19933;-33
2022/07/25 02:20:25;;;;;;;;;;;17.40;99.90;;;;;;4592538;19;19922;-33
2022/07/25 02:21:56;;;;;;;;;;;17.40;99.90;;;;;;4594441;19;19915;-34
2022/07/25 02:23:27;;;;;;;;;;;17.40;99.90;;;;;;4595175;19;20331;-32
2022/07/25 02:24:58;;;;;;;;;;;17.40;99.90;;;;;;4594567;19;19915;-32
2022/07/25 02:26:29;;;;;;;;;;;17.40;99.90;;;;;;4594985;19;20249;-33
2022/07/25 02:28:00;;;;;;;;;;;17.30;99.90;;;;;;4594663;19;19911;-33
2022/07/25 02:29:31;;;;;;;;;;;17.30;99.90;;;;;;4594835;19;20328;-33
2022/07/25 02:31:02;;;;;;;;;;;17.40;99.90;;;;;;4594138;19;19922;-32
2022/07/25 02:32:33;;;;;;;;;;;17.30;99.90;;;;;;4594839;19;20244;-33
2022/07/25 02:34:04;;;;;;;;;;;17.30;99.90;;;;;;4594172;19;19911;-33
2022/07/25 02:35:36;;;;;;;;;;;17.30;99.90;;;;;;4594896;19;19945;-32
2022/07/25 02:37:07;;;;;;;;;;;17.30;99.90;;;;;;4594229;19;19922;-33
2022/07/25 02:38:37;;;;;;;;;;;17.30;99.90;;;;;;4593906;19;19977;-33
2022/07/25 02:40:08;;;;;;;;;;;17.30;99.90;;;;;;4591900;19;19907;-33
2022/07/25 02:41:40;;;;;;;;;;;17.20;99.90;;;;;;4593368;19;19918;-33
2022/07/25 02:43:11;;;;;;;;;;;17.20;99.90;;;;;;4592443;19;20336;-33
2022/07/25 02:44:41;;;;;;;;;;;17.20;99.90;;;;;;4594453;19;19984;-33
2022/07/25 02:46:12;;;;;;;;;;;17.20;99.90;;;;;;4593827;19;19923;-33
2022/07/25 02:47:44;;;;;;;;;;;17.20;99.90;;;;;;4594969;19;19927;-33
2022/07/25 02:49:15;;;;;;;;;;;17.20;99.90;;;;;;4593958;19;19926;-33
2022/07/25 02:50:45;;;;;;;;;;;17.20;99.90;;;;;;4594465;19;20252;-33
2022/07/25 02:52:16;;;;;;;;;;;17.20;99.90;;;;;;4593889;19;19943;-34
2022/07/25 02:53:48;;;;;;;;;;;17.20;99.90;;;;;;4592147;19;20317;-33
2022/07/25 02:55:19;;;;;;;;;;;17.20;99.90;;;;;;4593493;19;19974;-32
2022/07/25 02:56:49;;;;;;;;;;;17.20;99.90;;;;;;4594147;19;19915;-35
2022/07/25 02:58:20;;;;;;;;;;;17.20;99.90;;;;;;4593782;19;20344;-34
2022/07/25 02:59:52;;;;;;;;;;;17.20;99.90;;;;;;4593775;19;19919;-33
2022/07/25 03:01:22;;;;;;;;;;;17.20;99.90;;;;;;4594086;19;19918;-32
2022/07/25 03:02:53;;;;;;;;;;;17.20;99.90;;;;;;4594058;19;19951;-33
2022/07/25 03:04:24;;;;;;;;;;;17.20;99.90;;;;;;4593676;19;19915;-33
2022/07/25 03:05:55;;;;;;;;;;;17.20;99.90;;;;;;4594253;19;20008;-33
2022/07/25 03:07:26;;;;;;;;;;;17.20;99.90;;;;;;4593877;19;20250;-33
2022/07/25 03:08:57;;;;;;;;;;;17.20;99.90;;;;;;4592717;19;19911;-33
2022/07/25 03:10:29;;;;;;;;;;;17.20;99.90;;;;;;4593886;19;19922;-33
2022/07/25 03:12:00;;;;;;;;;;;17.20;99.90;;;;;;4593774;19;19918;-33
2022/07/25 03:13:32;;;;;;;;;;;17.20;99.90;;;;;;4592792;19;20376;-34
2022/07/25 03:15:03;;;;;;;;;;;17.20;99.90;;;;;;4593086;19;20318;-33
2022/07/25 03:16:33;;;;;;;;;;;17.20;99.90;;;;;;4593738;19;19989;-33
2022/07/25 03:18:05;;;;;;;;;;;17.20;99.90;;;;;;4593460;19;19926;-32
2022/07/25 03:19:36;;;;;;;;;;;17.20;99.90;;;;;;4593318;19;19915;-33
2022/07/25 03:21:06;;;;;;;;;;;17.20;99.90;;;;;;4593283;19;19926;-33
2022/07/25 03:22:37;;;;;;;;;;;17.20;99.90;;;;;;4593743;19;19922;-34
2022/07/25 03:24:09;;;;;;;;;;;17.20;99.90;;;;;;4591939;19;19930;-33
2022/07/25 03:25:40;;;;;;;;;;;17.20;99.90;;;;;;4592621;19;20296;-33
2022/07/25 03:27:10;;;;;;;;;;;17.20;99.90;;;;;;4593103;19;19922;-33
2022/07/25 03:28:41;;;;;;;;;;;17.20;99.90;;;;;;4593744;19;19935;-32
2022/07/25 03:30:13;;;;;;;;;;;17.20;99.90;;;;;;4593174;19;19926;-32
2022/07/25 03:31:43;;;;;;;;;;;17.30;99.90;;;;;;4593414;19;19914;-32
2022/07/25 03:33:14;;;;;;;;;;;17.20;99.90;;;;;;4593171;19;19922;-34
2022/07/25 03:34:45;;;;;;;;;;;17.30;99.90;;;;;;4593981;19;20296;-33
2022/07/25 03:36:18;;;;;;;;;;;17.30;99.90;;;;;;4593230;19;19923;-32
2022/07/25 03:37:49;;;;;;;;;;;17.30;99.90;;;;;;4593563;19;19940;-33
2022/07/25 03:39:19;;;;;;;;;;;17.30;99.90;;;;;;4592977;19;20313;-33
2022/07/25 03:40:50;;;;;;;;;;;17.30;99.90;;;;;;4593236;19;20240;-33
2022/07/25 03:42:23;;;;;;;;;;;17.30;99.90;;;;;;4592067;19;20233;-33
2022/07/25 03:43:53;;;;;;;;;;;17.30;99.90;;;;;;4593184;19;19975;-33
2022/07/25 03:45:24;;;;;;;;;;;17.30;99.90;;;;;;4592813;19;20402;-33
2022/07/25 03:46:55;;;;;;;;;;;17.30;99.90;;;;;;4592194;19;19911;-34
2022/07/25 03:48:26;;;;;;;;;;;17.30;99.90;;;;;;4592867;19;19922;-33
2022/07/25 03:49:57;;;;;;;;;;;17.30;99.90;;;;;;4593445;19;19915;-33
2022/07/25 03:51:28;;;;;;;;;;;17.30;99.90;;;;;;4592730;19;19915;-32
2022/07/25 03:52:59;;;;;;;;;;;17.30;99.90;;;;;;4592937;19;19930;-33
2022/07/25 03:54:30;;;;;;;;;;;17.30;99.90;;;;;;4592805;19;19922;-33
2022/07/25 03:56:01;;;;;;;;;;;17.30;99.90;;;;;;4593263;19;19922;-33
2022/07/25 03:57:32;;;;;;;;;;;17.30;99.90;;;;;;4592588;19;19926;-33
2022/07/25 03:59:04;;;;;;;;;;;17.30;99.90;;;;;;4591855;19;19915;-33
2022/07/25 04:00:35;;;;;;;;;;;17.30;99.90;;;;;;4590074;19;19939;-34
2022/07/25 04:02:06;;;;;;;;;;;17.30;99.90;;;;;;4592687;19;20327;-32
2022/07/25 04:03:37;;;;;;;;;;;17.30;99.90;;;;;;4592499;19;20268;-33
2022/07/25 04:05:08;;;;;;;;;;;17.30;99.90;;;;;;4590528;19;19915;-32
2022/07/25 04:06:39;;;;;;;;;;;17.30;99.90;;;;;;4592125;19;19927;-33
2022/07/25 04:08:10;;;;;;;;;;;17.40;99.90;;;;;;4592683;19;19919;-33
2022/07/25 04:09:41;;;;;;;;;;;17.40;99.90;;;;;;4592581;19;19945;-33
2022/07/25 04:11:12;;;;;;;;;;;17.40;99.90;;;;;;4592316;19;19945;-33
2022/07/25 04:12:44;;;;;;;;;;;17.40;99.90;;;;;;4593160;19;20272;-33
2022/07/25 04:14:15;;;;;;;;;;;17.40;99.90;;;;;;4592200;19;19923;-32
2022/07/25 04:15:46;;;;;;;;;;;17.40;99.90;;;;;;4592576;19;19937;-34
2022/07/25 04:17:17;;;;;;;;;;;17.50;99.90;;;;;;4592272;19;19941;-32
2022/07/25 04:18:48;;;;;;;;;;;17.50;99.90;;;;;;4592951;19;19922;-32
2022/07/25 04:20:19;;;;;;;;;;;17.50;99.90;;;;;;4590980;19;19915;-33
2022/07/25 04:21:50;;;;;;;;;;;17.50;99.90;;;;;;4591315;19;19911;-33
2022/07/25 04:23:21;;;;;;;;;;;17.50;99.90;;;;;;4592512;19;19919;-34
2022/07/25 04:24:52;;;;;;;;;;;17.50;99.90;;;;;;4592598;19;19923;-35
2022/07/25 04:26:23;;;;;;;;;;;17.50;99.90;;;;;;4591977;19;19926;-33
2022/07/25 04:27:54;;;;;;;;;;;17.50;99.90;;;;;;4592382;19;19966;-34
2022/07/25 04:29:25;;;;;;;;;;;17.50;99.90;;;;;;4592249;19;20238;-33
2022/07/25 04:30:56;;;;;;;;;;;17.50;99.90;;;;;;4592322;19;19919;-32
2022/07/25 04:32:27;;;;;;;;;;;17.50;99.90;;;;;;4590830;19;19937;-32
2022/07/25 04:33:58;;;;;;;;;;;17.60;99.90;;;;;;4591904;19;20262;-33
2022/07/25 04:35:29;;;;;;;;;;;17.60;99.90;;;;;;4591972;19;19926;-34
2022/07/25 04:37:00;;;;;;;;;;;17.60;99.90;;;;;;4590884;19;20285;-33
2022/07/25 04:38:31;;;;;;;;;;;17.60;99.90;;;;;;4591271;19;19918;-34
2022/07/25 04:40:03;;;;;;;;;;;17.60;99.90;;;;;;4590541;19;20252;-34
2022/07/25 04:41:34;;;;;;;;;;;17.60;99.90;;;;;;4591666;19;19914;-33
2022/07/25 04:43:07;;;;;;;;;;;17.60;99.90;;;;;;4591058;19;19927;-32
2022/07/25 04:44:38;;;;;;;;;;;17.70;99.90;;;;;;4591768;19;19930;-34
2022/07/25 04:46:08;;;;;;;;;;;17.70;99.90;;;;;;4592305;19;19911;-34
2022/07/25 04:47:39;;;;;;;;;;;17.70;99.90;;;;;;4589873;19;19915;-33
2022/07/25 04:49:11;;;;;;;;;;;17.70;99.90;;;;;;4592416;19;19923;-33
2022/07/25 04:50:41;;;;;;;;;;;17.70;99.90;;;;;;4591271;19;19928;-33
2022/07/25 04:52:12;;;;;;;;;;;17.80;99.90;;;;;;4592191;19;19915;-34
2022/07/25 04:53:43;;;;;;;;;;;17.80;99.90;;;;;;4591272;19;19922;-33
2022/07/25 04:55:15;;;;;;;;;;;17.80;99.90;;;;;;4591916;19;20248;-34
2022/07/25 04:56:45;;;;;;;;;;;17.80;99.90;;;;;;4591085;19;19918;-34
2022/07/25 04:58:16;;;;;;;;;;;17.80;99.90;;;;;;4592224;19;19922;-32
2022/07/25 04:59:47;;;;;;;;;;;17.90;99.90;;;;;;4591070;19;20351;-34
2022/07/25 05:01:18;;;;;;;;;;;17.90;99.90;;;;;;4592231;19;19922;-33
2022/07/25 05:02:50;;;;;;;;;;;17.90;99.90;;;;;;4591158;19;19919;-32
2022/07/25 05:04:21;;;;;;;;;;;17.90;99.90;;;;;;4591431;19;19978;-33
2022/07/25 05:05:52;;;;;;;;;;;17.90;99.90;;;;;;4591335;19;19919;-35
2022/07/25 05:07:23;;;;;;;;;;;17.90;99.90;;;;;;4591794;19;19978;-34
2022/07/25 05:08:54;;;;;;;;;;;18.00;99.90;;;;;;4590914;19;19933;-34
2022/07/25 05:10:25;;;;;;;;;;;18.00;99.90;;;;;;4591502;19;20256;-33
2022/07/25 05:11:56;;;;;;;;;;;18.00;99.90;;;;;;4591251;19;19925;-33
2022/07/25 05:13:27;;;;;;;;;;;18.00;99.90;;;;;;4591363;19;19921;-34
2022/07/25 05:14:58;;;;;;;;;;;18.10;99.90;;;;;;4591389;19;20242;-33
2022/07/25 05:16:29;;;;;;;;;;;18.10;99.90;;;;;;4590110;19;19922;-33
2022/07/25 05:18:00;;;;;;;;;;;18.10;99.90;;;;;;4590755;19;19911;-33
2022/07/25 05:19:32;;;;;;;;;;;18.10;99.90;;;;;;4590946;19;19929;-34
2022/07/25 05:21:03;;;;;;;;;;;18.10;99.90;;;;;;4590868;19;19923;-33
2022/07/25 05:22:34;;;;;;;;;;;18.10;99.90;;;;;;4591186;19;19911;-33
2022/07/25 05:24:05;;;;;;;;;;;18.20;99.90;;;;;;4590944;19;19922;-33
2022/07/25 05:25:36;;;;;;;;;;;18.20;99.90;;;;;;4591104;19;19926;-33
2022/07/25 05:27:07;;;;;;;;;;;18.20;99.90;;;;;;4591195;19;19970;-33
2022/07/25 05:28:38;;;;;;;;;;;18.20;99.90;;;;;;4589995;19;19927;-34
2022/07/25 05:30:09;;;;;;;;;;;18.30;99.90;;;;;;4588150;19;19919;-34
2022/07/25 05:31:40;;;;;;;;;;;18.30;99.90;;;;;;4589449;19;19926;-33
2022/07/25 05:33:11;;;;;;;;;;;18.30;99.90;;;;;;4589346;19;19937;-34
2022/07/25 05:34:42;;;;;;;;;;;18.30;99.90;;;;;;4591395;19;19919;-33
2022/07/25 05:36:13;;;;;;;;;;;18.30;99.90;;;;;;4590922;19;19937;-34
2022/07/25 05:37:44;;;;;;;;;;;18.30;99.90;;;;;;4590537;19;20349;-34
2022/07/25 05:39:15;;;;;;;;;;;18.30;99.90;;;;;;4589032;19;19926;-34
2022/07/25 05:40:46;;;;;;;;;;;18.40;99.90;;;;;;4588566;19;19915;-34
2022/07/25 05:42:17;;;;;;;;;;;18.40;99.90;;;;;;4589174;19;20352;-35
2022/07/25 05:43:48;;;;;;;;;;;18.40;99.90;;;;;;4589138;19;20277;-32
2022/07/25 05:45:19;;;;;;;;;;;18.50;99.90;;;;;;4588985;19;19937;-33
2022/07/25 05:46:50;;;;;;;;;;;18.50;99.90;;;;;;4588531;19;20300;-32
2022/07/25 05:48:21;;;;;;;;;;;18.50;99.90;;;;;;4588551;19;19930;-33
2022/07/25 05:49:52;;;;;;;;;;;18.50;99.90;;;;;;4591291;19;19923;-34
2022/07/25 05:51:23;;;;;;;;;;;18.50;99.90;;;;;;4591084;19;19941;-34
2022/07/25 05:52:54;;;;;;;;;;;18.50;99.90;;;;;;4590750;19;19943;-34
2022/07/25 05:54:25;;;;;;;;;;;18.50;99.90;;;;;;4590818;19;19915;-33
2022/07/25 05:55:56;;;;;;;;;;;18.60;99.90;;;;;;4590491;19;19933;-34
2022/07/25 05:57:28;;;;;;;;;;;18.60;99.90;;;;;;4589899;19;19911;-33
2022/07/25 05:58:59;;;;;;;;;;;18.60;99.90;;;;;;4588954;19;19974;-33
2022/07/25 06:00:30;;;;;;;;;;;18.70;99.90;;;;;;4587940;19;19927;-34
2022/07/25 06:02:01;;;;;;;;;;;18.70;99.90;;;;;;4589090;19;19915;-33
2022/07/25 06:03:33;;;;;;;;;;;18.70;99.90;;;;;;4591707;19;19914;-32
2022/07/25 06:05:04;;;;;;;;;;;18.80;99.90;;;;;;4590578;19;19937;-34
2022/07/25 06:06:35;;;;;;;;;;;18.80;99.90;;;;;;4590684;19;19983;-33
2022/07/25 06:08:06;;;;;;;;;;;18.80;99.90;;;;;;4589395;19;19936;-34
2022/07/25 06:09:37;;;;;;;;;;;18.80;99.90;;;;;;4589865;19;19915;-33
2022/07/25 06:11:08;;;;;;;;;;;18.90;99.90;;;;;;4589980;19;19923;-34
2022/07/25 06:12:39;;;;;;;;;;;18.90;99.90;;;;;;4589314;19;19915;-32
2022/07/25 06:14:10;;;;;;;;;;;18.90;99.90;;;;;;4588987;19;20347;-33
2022/07/25 06:15:43;;;;;;;;;;;18.90;99.90;;;;;;4587980;19;19986;-33
2022/07/25 06:17:15;;;;;;;;;;;18.90;99.90;;;;;;4586889;19;20003;-32
2022/07/25 06:18:46;;;;;;;;;;;19.00;99.90;;;;;;4584949;19;20025;-35
2022/07/25 06:20:17;;;;;;;;;;;19.00;99.90;;;;;;4588925;19;19918;-33
2022/07/25 06:21:48;;;;;;;;;;;19.00;99.90;;;;;;4592070;19;19970;-33
2022/07/25 06:23:19;;;;;;;;;;;19.00;99.90;;;;;;4590291;19;19988;-34
2022/07/25 06:24:50;;;;;;;;;;;19.10;99.90;;;;;;4590341;19;19918;-34
2022/07/25 06:26:23;;;;;;;;;;;19.10;99.90;;;;;;4589165;19;19915;-33
2022/07/25 06:27:54;;;;;;;;;;;19.10;99.90;;;;;;4590551;19;20330;-34
2022/07/25 06:29:25;;;;;;;;;;;19.10;99.90;;;;;;4590303;19;19915;-34
2022/07/25 06:30:56;;;;;;;;;;;19.10;99.90;;;;;;4590645;19;19915;-34
2022/07/25 06:32:27;;;;;;;;;;;19.10;99.90;;;;;;4589152;19;19936;-33
2022/07/25 06:33:58;;;;;;;;;;;19.10;99.90;;;;;;4590151;19;19922;-33
2022/07/25 06:35:29;;;;;;;;;;;19.20;99.90;;;;;;4590247;19;19926;-30
2022/07/25 06:37:00;;;;;;;;;;;19.10;99.90;;;;;;4590667;19;20428;-33
2022/07/25 06:38:31;;;;;;;;;;;19.20;99.90;;;;;;4591233;19;19915;-34
2022/07/25 06:40:02;;;;;;;;;;;19.20;99.90;;;;;;4589414;19;19915;-33
2022/07/25 06:41:35;;;;;;;;;;;19.20;99.90;;;;;;4590170;19;19994;-33
2022/07/25 06:43:06;;;;;;;;;;;19.20;99.90;;;;;;4589602;19;20295;-34
2022/07/25 06:44:38;;;;;;;;;;;19.20;99.90;;;;;;4593471;19;19926;-33
2022/07/25 06:46:08;;;;;;;;;;;19.20;99.90;;;;;;4591927;19;19918;-33
2022/07/25 06:47:40;;;;;;;;;;;19.30;99.90;;;;;;4592070;19;20340;-32
2022/07/25 06:49:11;;;;;;;;;;;19.30;99.90;;;;;;4594974;19;19915;-34
2022/07/25 06:50:42;;;;;;;;;;;19.30;99.90;;;;;;4593859;19;20006;-33
2022/07/25 06:52:14;;;;;;;;;;;19.30;99.90;;;;;;4594494;19;19919;-33
2022/07/25 06:53:45;;;;;;;;;;;19.30;99.90;;;;;;4594551;19;19911;-32
2022/07/25 06:55:16;;;;;;;;;;;19.40;99.90;;;;;;4595473;19;19918;-33
2022/07/25 06:56:48;;;;;;;;;;;19.40;99.90;;;;;;4594407;19;20293;-34
2022/07/25 06:58:19;;;;;;;;;;;19.40;99.90;;;;;;4594520;19;19941;-34
2022/07/25 06:59:50;;;;;;;;;;;19.40;99.90;;;;;;4593669;19;19915;-33
2022/07/25 07:01:21;;;;;;;;;;;19.40;99.90;;;;;;4594429;19;19932;-34
2022/07/25 07:02:55;;;;;;;;;;;19.40;99.90;;;;;;4594089;19;19979;-33
2022/07/25 07:04:26;;;;;;;;;;;19.50;99.90;;;;;;4594487;19;19945;-34
2022/07/25 07:05:57;;;;;;;;;;;19.50;99.90;;;;;;4594166;19;19994;-34
2022/07/25 07:07:28;;;;;;;;;;;19.50;99.90;;;;;;4593857;19;20248;-34
2022/07/25 07:08:59;;;;;;;;;;;19.50;99.90;;;;;;4594176;19;19979;-33
2022/07/25 07:10:30;;;;;;;;;;;19.50;99.90;;;;;;4594516;19;19911;-34
2022/07/25 07:12:01;;;;;;;;;;;19.50;99.90;;;;;;4594188;19;20116;-33
2022/07/25 07:13:32;;;;;;;;;;;19.50;99.90;;;;;;4593859;19;19914;-33
2022/07/25 07:15:04;;;;;;;;;;;19.60;99.90;;;;;;4593647;19;19978;-34
2022/07/25 07:16:35;;;;;;;;;;;19.60;99.90;;;;;;4593391;19;19925;-33
2022/07/25 07:18:06;;;;;;;;;;;19.70;99.90;;;;;;4594171;19;19925;-34
2022/07/25 07:19:43;;;;;;;;;;;19.60;99.90;;;;;;4593345;19;19930;-34
2022/07/25 07:21:14;;;;;;;;;;;19.70;99.90;;;;;;4593581;19;19911;-33
2022/07/25 07:22:46;;;;;;;;;;;19.70;99.90;;;;;;4593789;19;20280;-33
2022/07/25 07:24:17;;;;;;;;;;;19.70;99.90;;;;;;4593634;19;20300;-33
2022/07/25 07:25:48;;;;;;;;;;;19.70;99.90;;;;;;4593605;19;20320;-34
2022/07/25 07:27:22;;;;;;;;;;;19.70;99.90;;;;;;4594302;19;19994;-34
2022/07/25 07:28:54;;;;;;;;;;;19.70;99.90;;;;;;4593526;19;19915;-34
2022/07/25 07:30:25;;;;;;;;;;;19.70;99.90;;;;;;4593767;19;19945;-34
2022/07/25 07:31:56;;;;;;;;;;;19.80;99.90;;;;;;4593408;19;19915;-34
2022/07/25 07:33:27;;;;;;;;;;;19.80;99.90;;;;;;4593973;19;19915;-33
2022/07/25 07:34:58;;;;;;;;;;;19.80;99.90;;;;;;4594020;19;20256;-34
2022/07/25 07:36:29;;;;;;;;;;;19.80;99.90;;;;;;4593995;19;19915;-34
2022/07/25 07:38:00;;;;;;;;;;;19.80;99.90;;;;;;4593542;19;19936;-33
2022/07/25 07:39:31;;;;;;;;;;;19.80;99.90;;;;;;4593440;19;19926;-34
2022/07/25 07:41:02;;;;;;;;;;;19.80;99.90;;;;;;4593682;19;19963;-33
2022/07/25 07:42:39;;;;;;;;;;;19.80;99.90;;;;;;4592389;19;19915;-34
2022/07/25 07:44:10;;;;;;;;;;;19.90;99.90;;;;;;4592964;19;19926;-34
2022/07/25 07:45:42;;;;;;;;;;;19.90;99.90;;;;;;4593586;19;20351;-32
2022/07/25 07:47:13;;;;;;;;;;;19.90;99.90;;;;;;4592322;19;19915;-34
2022/07/25 07:48:44;;;;;;;;;;;19.90;99.90;;;;;;4592812;19;19936;-33
2022/07/25 07:50:15;;;;;;;;;;;20.00;99.90;;;;;;4593589;19;19923;-34
2022/07/25 07:51:47;;;;;;;;;;;20.00;99.90;;;;;;4593422;19;19919;-34
2022/07/25 07:53:18;;;;;;;;;;;20.00;99.90;;;;;;4593511;19;19956;-34
2022/07/25 07:56:38;;;;;;;;;;;20.00;99.90;;;;;;4591173;19;19915;-32
2022/07/25 07:58:16;;;;;;;;;;;20.00;99.90;;;;;;4593389;19;19915;-33
2022/07/25 07:59:47;;;;;;;;;;;20.00;99.90;;;;;;4591089;19;19918;-33
2022/07/25 08:01:18;;;;;;;;;;;20.00;99.90;;;;;;4592383;19;19911;-33
2022/07/25 08:02:49;;;;;;;;;;;20.10;99.90;;;;;;4592915;19;19929;-34
2022/07/25 08:04:21;;;;;;;;;;;20.10;99.90;;;;;;4592478;19;19930;-34
2022/07/25 08:05:52;;;;;;;;;;;20.10;99.90;;;;;;4592560;19;20380;-32
2022/07/25 08:07:23;;;;;;;;;;;20.10;99.90;;;;;;4591420;19;19922;-33
2022/07/25 08:08:53;;;;;;;;;;;20.10;99.90;;;;;;4592774;19;19915;-33
2022/07/25 08:10:26;;;;;;;;;;;20.10;99.90;;;;;;4593125;19;20324;-34
2022/07/25 08:11:57;;;;;;;;;;;20.10;99.90;;;;;;4592994;19;19915;-33
2022/07/25 08:13:28;;;;;;;;;;;20.10;99.90;;;;;;4592450;19;19982;-33
2022/07/25 08:14:59;;;;;;;;;;;20.10;99.90;;;;;;4593090;19;19985;-33
2022/07/25 08:16:30;;;;;;;;;;;20.10;99.90;;;;;;4592932;19;19937;-32
2022/07/25 08:18:03;;;;;;;;;;;20.20;99.90;;;;;;4592791;19;19919;-33
2022/07/25 08:19:34;;;;;;;;;;;20.20;99.90;;;;;;4592295;19;19942;-33
2022/07/25 08:21:05;;;;;;;;;;;20.20;99.90;;;;;;4592400;19;19907;-34
2022/07/25 08:22:37;;;;;;;;;;;20.20;99.90;;;;;;4593638;19;19951;-34
2022/07/25 08:24:08;;;;;;;;;;;20.20;99.90;;;;;;4592612;19;20325;-34
2022/07/25 08:25:40;;;;;;;;;;;20.20;99.90;;;;;;4591470;19;19918;-34
2022/07/25 08:27:10;;;;;;;;;;;20.20;99.90;;;;;;4591241;19;19965;-32
2022/07/25 08:28:42;;;;;;;;;;;20.30;99.90;;;;;;4592331;19;19918;-34
2022/07/25 08:30:13;;;;;;;;;;;20.30;99.90;;;;;;4592624;19;19917;-35
2022/07/25 08:31:44;;;;;;;;;;;20.30;99.90;;;;;;4592851;19;19922;-35
2022/07/25 08:33:15;;;;;;;;;;;20.30;99.90;;;;;;4592643;19;20300;-34
2022/07/25 08:34:46;;;;;;;;;;;20.30;99.90;;;;;;4592765;19;19923;-33
2022/07/25 08:36:17;;;;;;;;;;;20.30;99.90;;;;;;4592542;19;19937;-34
2022/07/25 08:37:48;;;;;;;;;;;20.30;99.90;;;;;;4591409;19;19922;-34
2022/07/25 08:39:19;;;;;;;;;;;20.30;99.90;;;;;;4591841;19;19911;-33
2022/07/25 08:40:51;;;;;;;;;;;20.40;99.90;;;;;;4590578;19;19936;-33
2022/07/25 08:42:22;;;;;;;;;;;20.40;99.90;;;;;;4592026;19;19930;-33
2022/07/25 08:43:53;;;;;;;;;;;20.40;99.90;;;;;;4591363;19;19978;-33
2022/07/25 08:45:24;;;;;;;;;;;20.50;99.90;;;;;;4591438;19;20011;-34
2022/07/25 08:46:56;;;;;;;;;;;20.40;99.90;;;;;;4590375;19;19923;-34
2022/07/25 08:48:28;;;;;;;;;;;20.50;99.90;;;;;;4592366;19;20243;-34
2022/07/25 08:50:01;;;;;;;;;;;20.50;99.90;;;;;;4591940;19;19914;-33
2022/07/25 08:51:31;;;;;;;;;;;20.50;99.90;;;;;;4592633;19;19919;-32